sensor_id;sensor_type;location;lat;lon;timestamp;P1;durP1;ratioP1;P2;durP2;ratioP2
38479;SDS011;62333;51.980;5.934;2023-04-07T00:00:40;16.85;;;13.95;;
38479;SDS011;62333;51.980;5.934;2023-04-07T00:03:06;17.23;;;13.90;;
38479;SDS011;62333;51.980;5.934;2023-04-07T00:05:32;19.05;;;14.80;;
38479;SDS011;62333;51.980;5.934;2023-04-07T00:07:58;18.30;;;13.77;;
38479;SDS011;62333;51.980;5.934;2023-04-07T00:10:24;19.27;;;15.02;;
38479;SDS011;62333;51.980;5.934;2023-04-07T00:12:50;22.42;;;16.33;;
38479;SDS011;62333;51.980;5.934;2023-04-07T00:15:16;15.77;;;14.02;;
38479;SDS011;62333;51.980;5.934;2023-04-07T00:17:41;18.58;;;15.50;;
38479;SDS011;62333;51.980;5.934;2023-04-07T00:20:07;21.02;;;15.65;;
38479;SDS011;62333;51.980;5.934;2023-04-07T00:22:33;22.60;;;16.00;;
38479;SDS011;62333;51.980;5.934;2023-04-07T00:24:59;20.88;;;14.80;;
38479;SDS011;62333;51.980;5.934;2023-04-07T00:27:24;22.40;;;16.30;;
38479;SDS011;62333;51.980;5.934;2023-04-07T00:29:50;22.08;;;14.07;;
38479;SDS011;62333;51.980;5.934;2023-04-07T00:32:19;21.00;;;15.15;;
38479;SDS011;62333;51.980;5.934;2023-04-07T00:34:45;18.40;;;13.25;;
38479;SDS011;62333;51.980;5.934;2023-04-07T00:37:10;19.73;;;13.88;;
38479;SDS011;62333;51.980;5.934;2023-04-07T00:39:36;18.65;;;13.43;;
38479;SDS011;62333;51.980;5.934;2023-04-07T00:42:03;21.17;;;13.40;;
38479;SDS011;62333;51.980;5.934;2023-04-07T00:44:32;20.67;;;13.73;;
38479;SDS011;62333;51.980;5.934;2023-04-07T00:46:58;14.77;;;11.93;;
38479;SDS011;62333;51.980;5.934;2023-04-07T00:49:25;15.93;;;10.82;;
38479;SDS011;62333;51.980;5.934;2023-04-07T00:51:56;20.10;;;11.35;;
38479;SDS011;62333;51.980;5.934;2023-04-07T00:54:22;18.15;;;10.75;;
38479;SDS011;62333;51.980;5.934;2023-04-07T00:56:48;19.48;;;13.90;;
38479;SDS011;62333;51.980;5.934;2023-04-07T00:59:14;21.65;;;12.80;;
38479;SDS011;62333;51.980;5.934;2023-04-07T01:01:45;18.10;;;13.23;;
38479;SDS011;62333;51.980;5.934;2023-04-07T01:07:31;15.52;;;11.00;;
38479;SDS011;62333;51.980;5.934;2023-04-07T01:10:04;12.80;;;10.05;;
38479;SDS011;62333;51.980;5.934;2023-04-07T01:12:36;14.30;;;10.38;;
38479;SDS011;62333;51.980;5.934;2023-04-07T01:15:11;17.83;;;12.70;;
38479;SDS011;62333;51.980;5.934;2023-04-07T01:17:41;15.63;;;11.40;;
38479;SDS011;62333;51.980;5.934;2023-04-07T01:20:11;15.73;;;11.48;;
38479;SDS011;62333;51.980;5.934;2023-04-07T01:22:42;18.50;;;11.87;;
38479;SDS011;62333;51.980;5.934;2023-04-07T01:28:04;18.00;;;10.63;;
38479;SDS011;62333;51.980;5.934;2023-04-07T01:30:33;14.95;;;9.85;;
38479;SDS011;62333;51.980;5.934;2023-04-07T01:33:03;18.90;;;10.15;;
38479;SDS011;62333;51.980;5.934;2023-04-07T01:35:31;21.38;;;12.73;;
38479;SDS011;62333;51.980;5.934;2023-04-07T01:37:59;20.05;;;11.65;;
38479;SDS011;62333;51.980;5.934;2023-04-07T01:40:26;16.40;;;11.27;;
38479;SDS011;62333;51.980;5.934;2023-04-07T01:42:53;17.08;;;11.30;;
38479;SDS011;62333;51.980;5.934;2023-04-07T01:45:21;18.55;;;10.05;;
38479;SDS011;62333;51.980;5.934;2023-04-07T01:47:48;13.30;;;8.30;;
38479;SDS011;62333;51.980;5.934;2023-04-07T01:50:15;15.13;;;8.90;;
38479;SDS011;62333;51.980;5.934;2023-04-07T01:52:41;20.50;;;10.93;;
38479;SDS011;62333;51.980;5.934;2023-04-07T01:55:07;15.05;;;10.63;;
38479;SDS011;62333;51.980;5.934;2023-04-07T01:57:34;20.60;;;12.02;;
38479;SDS011;62333;51.980;5.934;2023-04-07T02:00:00;13.82;;;9.50;;
38479;SDS011;62333;51.980;5.934;2023-04-07T02:02:26;14.95;;;8.82;;
38479;SDS011;62333;51.980;5.934;2023-04-07T02:07:30;13.00;;;8.20;;
38479;SDS011;62333;51.980;5.934;2023-04-07T02:10:04;13.25;;;8.15;;
38479;SDS011;62333;51.980;5.934;2023-04-07T02:12:33;11.23;;;8.00;;
38479;SDS011;62333;51.980;5.934;2023-04-07T02:15:02;15.15;;;9.00;;
38479;SDS011;62333;51.980;5.934;2023-04-07T02:17:29;11.27;;;5.95;;
38479;SDS011;62333;51.980;5.934;2023-04-07T02:19:58;12.68;;;7.95;;
38479;SDS011;62333;51.980;5.934;2023-04-07T02:22:26;13.93;;;9.15;;
38479;SDS011;62333;51.980;5.934;2023-04-07T02:24:53;15.02;;;9.60;;
38479;SDS011;62333;51.980;5.934;2023-04-07T02:27:18;16.65;;;9.93;;
38479;SDS011;62333;51.980;5.934;2023-04-07T02:29:45;17.02;;;9.73;;
38479;SDS011;62333;51.980;5.934;2023-04-07T02:32:10;13.82;;;8.10;;
38479;SDS011;62333;51.980;5.934;2023-04-07T02:34:36;15.13;;;9.60;;
38479;SDS011;62333;51.980;5.934;2023-04-07T02:37:02;18.20;;;10.25;;
38479;SDS011;62333;51.980;5.934;2023-04-07T02:39:27;16.33;;;9.48;;
38479;SDS011;62333;51.980;5.934;2023-04-07T02:41:53;13.77;;;8.73;;
38479;SDS011;62333;51.980;5.934;2023-04-07T02:44:18;12.25;;;8.18;;
38479;SDS011;62333;51.980;5.934;2023-04-07T02:46:44;15.43;;;9.38;;
38479;SDS011;62333;51.980;5.934;2023-04-07T02:49:10;14.45;;;8.00;;
38479;SDS011;62333;51.980;5.934;2023-04-07T02:51:36;16.48;;;9.45;;
38479;SDS011;62333;51.980;5.934;2023-04-07T02:54:01;13.77;;;8.35;;
38479;SDS011;62333;51.980;5.934;2023-04-07T02:56:27;16.85;;;8.55;;
38479;SDS011;62333;51.980;5.934;2023-04-07T02:58:52;11.82;;;7.88;;
38479;SDS011;62333;51.980;5.934;2023-04-07T03:01:18;16.25;;;9.38;;
38479;SDS011;62333;51.980;5.934;2023-04-07T03:03:44;13.32;;;8.88;;
38479;SDS011;62333;51.980;5.934;2023-04-07T03:06:11;13.48;;;8.38;;
38479;SDS011;62333;51.980;5.934;2023-04-07T03:08:37;12.45;;;8.65;;
38479;SDS011;62333;51.980;5.934;2023-04-07T03:11:03;17.17;;;9.45;;
38479;SDS011;62333;51.980;5.934;2023-04-07T03:13:28;15.88;;;8.57;;
38479;SDS011;62333;51.980;5.934;2023-04-07T03:15:55;14.43;;;8.15;;
38479;SDS011;62333;51.980;5.934;2023-04-07T03:18:22;11.68;;;7.10;;
38479;SDS011;62333;51.980;5.934;2023-04-07T03:20:47;15.45;;;8.10;;
38479;SDS011;62333;51.980;5.934;2023-04-07T03:23:13;14.13;;;8.25;;
38479;SDS011;62333;51.980;5.934;2023-04-07T03:25:39;15.30;;;8.05;;
38479;SDS011;62333;51.980;5.934;2023-04-07T03:28:05;16.02;;;8.88;;
38479;SDS011;62333;51.980;5.934;2023-04-07T03:30:31;12.65;;;7.25;;
38479;SDS011;62333;51.980;5.934;2023-04-07T03:32:57;16.13;;;7.38;;
38479;SDS011;62333;51.980;5.934;2023-04-07T03:35:22;9.82;;;6.40;;
38479;SDS011;62333;51.980;5.934;2023-04-07T03:37:48;12.63;;;6.97;;
38479;SDS011;62333;51.980;5.934;2023-04-07T03:40:14;13.93;;;6.95;;
38479;SDS011;62333;51.980;5.934;2023-04-07T03:42:39;13.80;;;6.50;;
38479;SDS011;62333;51.980;5.934;2023-04-07T03:45:05;10.95;;;5.93;;
38479;SDS011;62333;51.980;5.934;2023-04-07T03:47:31;9.60;;;5.72;;
38479;SDS011;62333;51.980;5.934;2023-04-07T03:49:57;9.15;;;4.70;;
38479;SDS011;62333;51.980;5.934;2023-04-07T03:52:23;8.35;;;5.35;;
38479;SDS011;62333;51.980;5.934;2023-04-07T03:54:48;9.10;;;5.63;;
38479;SDS011;62333;51.980;5.934;2023-04-07T03:57:14;9.80;;;4.47;;
38479;SDS011;62333;51.980;5.934;2023-04-07T03:59:40;10.65;;;6.32;;
38479;SDS011;62333;51.980;5.934;2023-04-07T04:02:06;14.25;;;7.18;;
38479;SDS011;62333;51.980;5.934;2023-04-07T04:04:31;12.05;;;5.85;;
38479;SDS011;62333;51.980;5.934;2023-04-07T04:06:57;12.38;;;7.25;;
38479;SDS011;62333;51.980;5.934;2023-04-07T04:09:22;8.68;;;5.85;;
38479;SDS011;62333;51.980;5.934;2023-04-07T04:11:48;13.95;;;6.57;;
38479;SDS011;62333;51.980;5.934;2023-04-07T04:14:14;16.98;;;7.93;;
38479;SDS011;62333;51.980;5.934;2023-04-07T04:16:40;13.13;;;7.15;;
38479;SDS011;62333;51.980;5.934;2023-04-07T04:19:07;16.02;;;8.18;;
38479;SDS011;62333;51.980;5.934;2023-04-07T04:21:32;14.70;;;8.15;;
38479;SDS011;62333;51.980;5.934;2023-04-07T04:23:58;16.23;;;9.43;;
38479;SDS011;62333;51.980;5.934;2023-04-07T04:26:24;15.38;;;9.63;;
38479;SDS011;62333;51.980;5.934;2023-04-07T04:28:50;14.77;;;8.40;;
38479;SDS011;62333;51.980;5.934;2023-04-07T04:31:16;15.95;;;9.30;;
38479;SDS011;62333;51.980;5.934;2023-04-07T04:33:42;18.52;;;7.95;;
38479;SDS011;62333;51.980;5.934;2023-04-07T04:36:08;17.10;;;9.07;;
38479;SDS011;62333;51.980;5.934;2023-04-07T04:38:34;14.63;;;7.70;;
38479;SDS011;62333;51.980;5.934;2023-04-07T04:41:00;15.85;;;9.32;;
38479;SDS011;62333;51.980;5.934;2023-04-07T04:43:25;13.27;;;9.05;;
38479;SDS011;62333;51.980;5.934;2023-04-07T04:45:51;14.77;;;8.43;;
38479;SDS011;62333;51.980;5.934;2023-04-07T04:48:17;14.95;;;8.65;;
38479;SDS011;62333;51.980;5.934;2023-04-07T04:50:42;14.57;;;8.65;;
38479;SDS011;62333;51.980;5.934;2023-04-07T04:53:08;11.88;;;7.60;;
38479;SDS011;62333;51.980;5.934;2023-04-07T04:55:34;12.75;;;7.88;;
38479;SDS011;62333;51.980;5.934;2023-04-07T04:58:00;11.10;;;6.40;;
38479;SDS011;62333;51.980;5.934;2023-04-07T05:00:26;36.95;;;21.65;;
38479;SDS011;62333;51.980;5.934;2023-04-07T05:02:52;24.90;;;16.08;;
38479;SDS011;62333;51.980;5.934;2023-04-07T05:05:17;19.55;;;13.13;;
38479;SDS011;62333;51.980;5.934;2023-04-07T05:07:43;20.10;;;12.70;;
38479;SDS011;62333;51.980;5.934;2023-04-07T05:10:09;14.93;;;8.68;;
38479;SDS011;62333;51.980;5.934;2023-04-07T05:12:35;16.02;;;8.93;;
38479;SDS011;62333;51.980;5.934;2023-04-07T05:15:00;16.40;;;9.43;;
38479;SDS011;62333;51.980;5.934;2023-04-07T05:17:26;13.90;;;7.68;;
38479;SDS011;62333;51.980;5.934;2023-04-07T05:19:52;13.75;;;7.88;;
38479;SDS011;62333;51.980;5.934;2023-04-07T05:22:17;17.15;;;7.57;;
38479;SDS011;62333;51.980;5.934;2023-04-07T05:24:43;12.57;;;7.85;;
38479;SDS011;62333;51.980;5.934;2023-04-07T05:27:09;15.95;;;6.88;;
38479;SDS011;62333;51.980;5.934;2023-04-07T05:29:34;12.55;;;6.60;;
38479;SDS011;62333;51.980;5.934;2023-04-07T05:32:00;12.75;;;8.05;;
38479;SDS011;62333;51.980;5.934;2023-04-07T05:34:26;12.13;;;7.30;;
38479;SDS011;62333;51.980;5.934;2023-04-07T05:36:52;14.07;;;7.75;;
38479;SDS011;62333;51.980;5.934;2023-04-07T05:39:18;10.57;;;6.70;;
38479;SDS011;62333;51.980;5.934;2023-04-07T05:41:44;11.75;;;6.35;;
38479;SDS011;62333;51.980;5.934;2023-04-07T05:44:09;9.75;;;6.53;;
38479;SDS011;62333;51.980;5.934;2023-04-07T05:46:35;8.38;;;5.57;;
38479;SDS011;62333;51.980;5.934;2023-04-07T05:49:01;10.68;;;6.05;;
38479;SDS011;62333;51.980;5.934;2023-04-07T05:51:26;9.68;;;5.38;;
38479;SDS011;62333;51.980;5.934;2023-04-07T05:53:52;9.07;;;5.55;;
38479;SDS011;62333;51.980;5.934;2023-04-07T05:56:18;11.88;;;5.93;;
38479;SDS011;62333;51.980;5.934;2023-04-07T05:58:43;12.07;;;7.03;;
38479;SDS011;62333;51.980;5.934;2023-04-07T06:01:09;16.83;;;7.97;;
38479;SDS011;62333;51.980;5.934;2023-04-07T06:03:35;12.95;;;6.18;;
38479;SDS011;62333;51.980;5.934;2023-04-07T06:06:00;14.50;;;6.43;;
38479;SDS011;62333;51.980;5.934;2023-04-07T06:08:26;11.05;;;5.90;;
38479;SDS011;62333;51.980;5.934;2023-04-07T06:10:52;10.57;;;5.70;;
38479;SDS011;62333;51.980;5.934;2023-04-07T06:13:17;13.30;;;6.60;;
38479;SDS011;62333;51.980;5.934;2023-04-07T06:15:43;16.77;;;7.47;;
38479;SDS011;62333;51.980;5.934;2023-04-07T06:18:09;14.73;;;7.20;;
38479;SDS011;62333;51.980;5.934;2023-04-07T06:20:34;13.00;;;7.03;;
38479;SDS011;62333;51.980;5.934;2023-04-07T06:23:00;14.15;;;6.45;;
38479;SDS011;62333;51.980;5.934;2023-04-07T06:25:26;14.20;;;6.25;;
38479;SDS011;62333;51.980;5.934;2023-04-07T06:27:52;13.27;;;7.10;;
38479;SDS011;62333;51.980;5.934;2023-04-07T06:30:18;8.70;;;5.28;;
38479;SDS011;62333;51.980;5.934;2023-04-07T06:32:44;10.63;;;5.57;;
38479;SDS011;62333;51.980;5.934;2023-04-07T06:35:10;10.27;;;4.93;;
38479;SDS011;62333;51.980;5.934;2023-04-07T06:37:36;9.07;;;4.88;;
38479;SDS011;62333;51.980;5.934;2023-04-07T06:40:03;11.82;;;6.07;;
38479;SDS011;62333;51.980;5.934;2023-04-07T06:42:29;12.75;;;6.10;;
38479;SDS011;62333;51.980;5.934;2023-04-07T06:44:55;9.85;;;5.45;;
38479;SDS011;62333;51.980;5.934;2023-04-07T06:47:21;11.10;;;6.57;;
38479;SDS011;62333;51.980;5.934;2023-04-07T06:49:47;12.50;;;7.03;;
38479;SDS011;62333;51.980;5.934;2023-04-07T06:52:13;12.50;;;6.18;;
38479;SDS011;62333;51.980;5.934;2023-04-07T06:54:38;12.00;;;5.82;;
38479;SDS011;62333;51.980;5.934;2023-04-07T06:57:04;10.80;;;5.93;;
38479;SDS011;62333;51.980;5.934;2023-04-07T06:59:35;9.05;;;4.65;;
38479;SDS011;62333;51.980;5.934;2023-04-07T07:02:04;7.60;;;3.75;;
38479;SDS011;62333;51.980;5.934;2023-04-07T07:04:31;8.40;;;3.70;;
38479;SDS011;62333;51.980;5.934;2023-04-07T07:06:57;5.43;;;3.17;;
38479;SDS011;62333;51.980;5.934;2023-04-07T07:09:23;5.93;;;3.33;;
38479;SDS011;62333;51.980;5.934;2023-04-07T07:11:50;5.68;;;3.05;;
38479;SDS011;62333;51.980;5.934;2023-04-07T07:14:16;9.32;;;3.22;;
38479;SDS011;62333;51.980;5.934;2023-04-07T07:16:41;8.65;;;3.17;;
38479;SDS011;62333;51.980;5.934;2023-04-07T07:19:07;10.32;;;3.90;;
38479;SDS011;62333;51.980;5.934;2023-04-07T07:21:33;8.32;;;2.60;;
38479;SDS011;62333;51.980;5.934;2023-04-07T07:23:59;5.88;;;2.15;;
38479;SDS011;62333;51.980;5.934;2023-04-07T07:26:25;6.80;;;3.15;;
38479;SDS011;62333;51.980;5.934;2023-04-07T07:28:51;6.47;;;2.70;;
38479;SDS011;62333;51.980;5.934;2023-04-07T07:31:16;6.38;;;2.20;;
38479;SDS011;62333;51.980;5.934;2023-04-07T07:33:42;3.10;;;1.70;;
38479;SDS011;62333;51.980;5.934;2023-04-07T07:36:10;5.75;;;2.50;;
38479;SDS011;62333;51.980;5.934;2023-04-07T07:38:36;7.22;;;2.50;;
38479;SDS011;62333;51.980;5.934;2023-04-07T07:41:02;7.47;;;2.67;;
38479;SDS011;62333;51.980;5.934;2023-04-07T07:43:28;3.85;;;1.75;;
38479;SDS011;62333;51.980;5.934;2023-04-07T07:45:54;6.97;;;1.83;;
38479;SDS011;62333;51.980;5.934;2023-04-07T07:48:20;10.57;;;2.63;;
38479;SDS011;62333;51.980;5.934;2023-04-07T07:50:45;6.90;;;1.88;;
38479;SDS011;62333;51.980;5.934;2023-04-07T07:53:13;3.45;;;1.42;;
38479;SDS011;62333;51.980;5.934;2023-04-07T07:55:39;3.72;;;1.52;;
38479;SDS011;62333;51.980;5.934;2023-04-07T07:58:05;6.28;;;1.52;;
38479;SDS011;62333;51.980;5.934;2023-04-07T08:00:30;6.75;;;1.95;;
38479;SDS011;62333;51.980;5.934;2023-04-07T08:02:56;5.85;;;2.08;;
38479;SDS011;62333;51.980;5.934;2023-04-07T08:05:22;3.75;;;1.73;;
38479;SDS011;62333;51.980;5.934;2023-04-07T08:07:47;7.78;;;1.40;;
38479;SDS011;62333;51.980;5.934;2023-04-07T08:10:13;4.20;;;2.08;;
38479;SDS011;62333;51.980;5.934;2023-04-07T08:12:39;3.85;;;0.88;;
38479;SDS011;62333;51.980;5.934;2023-04-07T08:15:05;4.00;;;1.45;;
38479;SDS011;62333;51.980;5.934;2023-04-07T08:17:34;3.30;;;0.82;;
38479;SDS011;62333;51.980;5.934;2023-04-07T08:20:00;3.35;;;1.73;;
38479;SDS011;62333;51.980;5.934;2023-04-07T08:22:25;3.50;;;1.35;;
38479;SDS011;62333;51.980;5.934;2023-04-07T08:24:51;2.92;;;1.27;;
38479;SDS011;62333;51.980;5.934;2023-04-07T08:27:17;4.70;;;1.17;;
38479;SDS011;62333;51.980;5.934;2023-04-07T08:29:43;5.00;;;1.58;;
38479;SDS011;62333;51.980;5.934;2023-04-07T08:32:08;2.63;;;1.10;;
38479;SDS011;62333;51.980;5.934;2023-04-07T08:34:34;4.78;;;1.85;;
38479;SDS011;62333;51.980;5.934;2023-04-07T08:37:00;6.05;;;1.50;;
38479;SDS011;62333;51.980;5.934;2023-04-07T08:39:26;2.30;;;0.90;;
38479;SDS011;62333;51.980;5.934;2023-04-07T08:41:52;5.40;;;1.48;;
38479;SDS011;62333;51.980;5.934;2023-04-07T08:44:19;3.33;;;0.98;;
38479;SDS011;62333;51.980;5.934;2023-04-07T08:46:47;4.90;;;1.30;;
38479;SDS011;62333;51.980;5.934;2023-04-07T08:49:17;3.30;;;1.17;;
38479;SDS011;62333;51.980;5.934;2023-04-07T08:51:44;3.80;;;0.88;;
38479;SDS011;62333;51.980;5.934;2023-04-07T08:54:12;3.05;;;1.45;;
38479;SDS011;62333;51.980;5.934;2023-04-07T08:56:40;2.90;;;0.95;;
38479;SDS011;62333;51.980;5.934;2023-04-07T08:59:08;2.25;;;1.00;;
38479;SDS011;62333;51.980;5.934;2023-04-07T09:01:39;3.53;;;1.20;;
38479;SDS011;62333;51.980;5.934;2023-04-07T09:04:06;3.22;;;1.10;;
38479;SDS011;62333;51.980;5.934;2023-04-07T09:06:33;5.28;;;2.00;;
38479;SDS011;62333;51.980;5.934;2023-04-07T09:09:02;4.55;;;1.63;;
38479;SDS011;62333;51.980;5.934;2023-04-07T09:13:59;3.22;;;1.30;;
38479;SDS011;62333;51.980;5.934;2023-04-07T09:16:26;3.30;;;1.35;;
38479;SDS011;62333;51.980;5.934;2023-04-07T09:18:53;4.03;;;1.75;;
38479;SDS011;62333;51.980;5.934;2023-04-07T09:21:19;7.50;;;2.30;;
38479;SDS011;62333;51.980;5.934;2023-04-07T09:23:46;3.53;;;1.70;;
38479;SDS011;62333;51.980;5.934;2023-04-07T09:28:57;4.65;;;1.90;;
38479;SDS011;62333;51.980;5.934;2023-04-07T09:31:42;3.20;;;1.98;;
38479;SDS011;62333;51.980;5.934;2023-04-07T09:34:25;3.92;;;1.60;;
38479;SDS011;62333;51.980;5.934;2023-04-07T09:36:53;5.80;;;1.52;;
38479;SDS011;62333;51.980;5.934;2023-04-07T09:39:20;5.20;;;1.75;;
38479;SDS011;62333;51.980;5.934;2023-04-07T09:41:46;6.10;;;1.83;;
38479;SDS011;62333;51.980;5.934;2023-04-07T09:44:12;6.32;;;1.38;;
38479;SDS011;62333;51.980;5.934;2023-04-07T09:49:34;6.95;;;2.17;;
38479;SDS011;62333;51.980;5.934;2023-04-07T09:52:14;5.78;;;1.58;;
38479;SDS011;62333;51.980;5.934;2023-04-07T09:54:41;5.68;;;3.00;;
38479;SDS011;62333;51.980;5.934;2023-04-07T09:57:09;5.53;;;2.08;;
38479;SDS011;62333;51.980;5.934;2023-04-07T09:59:36;4.15;;;1.40;;
38479;SDS011;62333;51.980;5.934;2023-04-07T10:02:03;5.35;;;1.52;;
38479;SDS011;62333;51.980;5.934;2023-04-07T10:04:30;7.47;;;2.00;;
38479;SDS011;62333;51.980;5.934;2023-04-07T10:06:56;5.25;;;1.73;;
38479;SDS011;62333;51.980;5.934;2023-04-07T10:09:24;2.65;;;1.15;;
38479;SDS011;62333;51.980;5.934;2023-04-07T10:11:54;4.72;;;1.55;;
38479;SDS011;62333;51.980;5.934;2023-04-07T10:14:29;2.58;;;1.20;;
38479;SDS011;62333;51.980;5.934;2023-04-07T10:16:56;4.45;;;1.20;;
38479;SDS011;62333;51.980;5.934;2023-04-07T10:19:30;6.73;;;2.57;;
38479;SDS011;62333;51.980;5.934;2023-04-07T10:22:00;5.03;;;1.95;;
38479;SDS011;62333;51.980;5.934;2023-04-07T10:24:32;3.85;;;1.55;;
38479;SDS011;62333;51.980;5.934;2023-04-07T10:27:08;4.55;;;1.52;;
38479;SDS011;62333;51.980;5.934;2023-04-07T10:29:39;4.15;;;1.80;;
38479;SDS011;62333;51.980;5.934;2023-04-07T10:32:06;8.00;;;1.92;;
38479;SDS011;62333;51.980;5.934;2023-04-07T10:34:54;4.30;;;1.42;;
38479;SDS011;62333;51.980;5.934;2023-04-07T10:37:22;6.60;;;1.70;;
38479;SDS011;62333;51.980;5.934;2023-04-07T10:39:49;5.10;;;2.00;;
38479;SDS011;62333;51.980;5.934;2023-04-07T10:45:00;5.45;;;2.22;;
38479;SDS011;62333;51.980;5.934;2023-04-07T10:47:26;5.03;;;1.10;;
38479;SDS011;62333;51.980;5.934;2023-04-07T10:52:41;5.88;;;1.58;;
38479;SDS011;62333;51.980;5.934;2023-04-07T11:01:30;3.17;;;1.23;;
38479;SDS011;62333;51.980;5.934;2023-04-07T11:03:32;7.20;;;2.08;;
38479;SDS011;62333;51.980;5.934;2023-04-07T11:06:05;4.07;;;1.35;;
38479;SDS011;62333;51.980;5.934;2023-04-07T11:08:35;3.97;;;1.30;;
38479;SDS011;62333;51.980;5.934;2023-04-07T11:11:09;4.97;;;1.65;;
38479;SDS011;62333;51.980;5.934;2023-04-07T11:16:06;2.97;;;1.05;;
38479;SDS011;62333;51.980;5.934;2023-04-07T11:18:32;5.65;;;2.60;;
38479;SDS011;62333;51.980;5.934;2023-04-07T11:20:59;6.10;;;1.27;;
38479;SDS011;62333;51.980;5.934;2023-04-07T11:23:24;5.53;;;1.92;;
38479;SDS011;62333;51.980;5.934;2023-04-07T11:26:00;3.72;;;1.83;;
38479;SDS011;62333;51.980;5.934;2023-04-07T11:28:28;4.90;;;1.90;;
38479;SDS011;62333;51.980;5.934;2023-04-07T11:30:54;4.65;;;1.20;;
38479;SDS011;62333;51.980;5.934;2023-04-07T11:33:25;4.72;;;1.70;;
38479;SDS011;62333;51.980;5.934;2023-04-07T11:35:53;3.88;;;2.03;;
38479;SDS011;62333;51.980;5.934;2023-04-07T11:38:27;3.17;;;1.50;;
38479;SDS011;62333;51.980;5.934;2023-04-07T11:41:08;6.95;;;2.25;;
38479;SDS011;62333;51.980;5.934;2023-04-07T11:43:38;5.00;;;1.85;;
38479;SDS011;62333;51.980;5.934;2023-04-07T11:48:42;5.68;;;1.55;;
38479;SDS011;62333;51.980;5.934;2023-04-07T11:51:19;7.97;;;1.45;;
38479;SDS011;62333;51.980;5.934;2023-04-07T11:53:53;8.52;;;2.45;;
38479;SDS011;62333;51.980;5.934;2023-04-07T11:56:20;4.45;;;1.10;;
38479;SDS011;62333;51.980;5.934;2023-04-07T11:58:49;3.45;;;1.40;;
38479;SDS011;62333;51.980;5.934;2023-04-07T12:01:18;6.55;;;2.25;;
38479;SDS011;62333;51.980;5.934;2023-04-07T12:03:55;7.38;;;3.63;;
38479;SDS011;62333;51.980;5.934;2023-04-07T12:06:29;6.63;;;3.20;;
38479;SDS011;62333;51.980;5.934;2023-04-07T12:09:02;4.63;;;2.53;;
38479;SDS011;62333;51.980;5.934;2023-04-07T12:11:48;3.67;;;2.40;;
38479;SDS011;62333;51.980;5.934;2023-04-07T12:14:14;4.35;;;1.85;;
38479;SDS011;62333;51.980;5.934;2023-04-07T12:16:40;7.00;;;2.08;;
38479;SDS011;62333;51.980;5.934;2023-04-07T12:19:06;5.93;;;2.20;;
38479;SDS011;62333;51.980;5.934;2023-04-07T12:21:32;5.22;;;2.33;;
38479;SDS011;62333;51.980;5.934;2023-04-07T12:23:58;5.85;;;2.53;;
38479;SDS011;62333;51.980;5.934;2023-04-07T12:26:23;4.05;;;1.88;;
38479;SDS011;62333;51.980;5.934;2023-04-07T12:28:49;6.18;;;1.67;;
38479;SDS011;62333;51.980;5.934;2023-04-07T12:31:15;4.72;;;2.00;;
38479;SDS011;62333;51.980;5.934;2023-04-07T12:33:41;4.65;;;1.33;;
38479;SDS011;62333;51.980;5.934;2023-04-07T12:36:07;5.78;;;2.00;;
38479;SDS011;62333;51.980;5.934;2023-04-07T12:38:32;7.72;;;2.45;;
38479;SDS011;62333;51.980;5.934;2023-04-07T12:40:58;6.65;;;1.73;;
38479;SDS011;62333;51.980;5.934;2023-04-07T12:43:28;6.35;;;2.00;;
38479;SDS011;62333;51.980;5.934;2023-04-07T12:45:54;5.70;;;2.75;;
38479;SDS011;62333;51.980;5.934;2023-04-07T12:48:20;5.53;;;2.42;;
38479;SDS011;62333;51.980;5.934;2023-04-07T12:50:46;5.35;;;2.00;;
38479;SDS011;62333;51.980;5.934;2023-04-07T12:53:11;5.22;;;1.73;;
38479;SDS011;62333;51.980;5.934;2023-04-07T12:55:37;4.15;;;1.70;;
38479;SDS011;62333;51.980;5.934;2023-04-07T12:58:03;6.63;;;1.75;;
38479;SDS011;62333;51.980;5.934;2023-04-07T13:00:28;3.47;;;1.10;;
38479;SDS011;62333;51.980;5.934;2023-04-07T13:02:55;9.73;;;1.65;;
38479;SDS011;62333;51.980;5.934;2023-04-07T13:05:21;2.40;;;0.95;;
38479;SDS011;62333;51.980;5.934;2023-04-07T13:07:47;5.78;;;1.73;;
38479;SDS011;62333;51.980;5.934;2023-04-07T13:10:13;3.05;;;1.30;;
38479;SDS011;62333;51.980;5.934;2023-04-07T13:12:39;3.80;;;1.90;;
38479;SDS011;62333;51.980;5.934;2023-04-07T13:15:06;6.20;;;2.20;;
38479;SDS011;62333;51.980;5.934;2023-04-07T13:17:32;3.45;;;1.50;;
38479;SDS011;62333;51.980;5.934;2023-04-07T13:20:00;4.97;;;1.60;;
38479;SDS011;62333;51.980;5.934;2023-04-07T13:22:27;3.55;;;1.38;;
38479;SDS011;62333;51.980;5.934;2023-04-07T13:24:53;3.45;;;1.48;;
38479;SDS011;62333;51.980;5.934;2023-04-07T13:27:19;5.32;;;2.17;;
38479;SDS011;62333;51.980;5.934;2023-04-07T13:29:45;2.80;;;0.98;;
38479;SDS011;62333;51.980;5.934;2023-04-07T13:32:11;11.45;;;2.53;;
38479;SDS011;62333;51.980;5.934;2023-04-07T13:34:37;4.97;;;2.13;;
38479;SDS011;62333;51.980;5.934;2023-04-07T13:37:03;4.25;;;1.38;;
38479;SDS011;62333;51.980;5.934;2023-04-07T13:39:30;2.22;;;1.20;;
38479;SDS011;62333;51.980;5.934;2023-04-07T13:41:56;13.55;;;1.92;;
38479;SDS011;62333;51.980;5.934;2023-04-07T13:44:22;3.58;;;1.88;;
38479;SDS011;62333;51.980;5.934;2023-04-07T13:46:48;4.50;;;1.60;;
38479;SDS011;62333;51.980;5.934;2023-04-07T13:49:14;3.00;;;1.23;;
38479;SDS011;62333;51.980;5.934;2023-04-07T13:51:40;3.22;;;1.52;;
38479;SDS011;62333;51.980;5.934;2023-04-07T13:54:06;4.70;;;1.55;;
38479;SDS011;62333;51.980;5.934;2023-04-07T13:56:32;5.40;;;1.55;;
38479;SDS011;62333;51.980;5.934;2023-04-07T13:58:59;6.28;;;1.92;;
38479;SDS011;62333;51.980;5.934;2023-04-07T14:01:25;7.13;;;1.60;;
38479;SDS011;62333;51.980;5.934;2023-04-07T14:03:52;2.72;;;1.38;;
38479;SDS011;62333;51.980;5.934;2023-04-07T14:06:18;4.53;;;1.15;;
38479;SDS011;62333;51.980;5.934;2023-04-07T14:08:46;4.70;;;1.63;;
38479;SDS011;62333;51.980;5.934;2023-04-07T14:11:16;4.20;;;1.35;;
38479;SDS011;62333;51.980;5.934;2023-04-07T14:13:42;4.13;;;1.55;;
38479;SDS011;62333;51.980;5.934;2023-04-07T14:16:08;4.93;;;1.55;;
38479;SDS011;62333;51.980;5.934;2023-04-07T14:18:34;3.78;;;1.77;;
38479;SDS011;62333;51.980;5.934;2023-04-07T14:21:01;4.00;;;1.67;;
38479;SDS011;62333;51.980;5.934;2023-04-07T14:23:27;3.70;;;1.30;;
38479;SDS011;62333;51.980;5.934;2023-04-07T14:25:53;4.47;;;1.33;;
38479;SDS011;62333;51.980;5.934;2023-04-07T14:28:19;3.00;;;1.15;;
38479;SDS011;62333;51.980;5.934;2023-04-07T14:30:45;7.47;;;2.17;;
38479;SDS011;62333;51.980;5.934;2023-04-07T14:33:12;5.40;;;1.75;;
38479;SDS011;62333;51.980;5.934;2023-04-07T14:35:37;8.50;;;2.10;;
38479;SDS011;62333;51.980;5.934;2023-04-07T14:38:03;4.47;;;1.60;;
38479;SDS011;62333;51.980;5.934;2023-04-07T14:40:29;10.43;;;1.65;;
38479;SDS011;62333;51.980;5.934;2023-04-07T14:42:55;5.10;;;1.92;;
38479;SDS011;62333;51.980;5.934;2023-04-07T14:45:23;4.55;;;1.42;;
38479;SDS011;62333;51.980;5.934;2023-04-07T14:47:49;3.38;;;1.42;;
38479;SDS011;62333;51.980;5.934;2023-04-07T14:50:15;3.33;;;1.08;;
38479;SDS011;62333;51.980;5.934;2023-04-07T14:52:41;5.32;;;1.27;;
38479;SDS011;62333;51.980;5.934;2023-04-07T14:55:07;4.30;;;1.42;;
38479;SDS011;62333;51.980;5.934;2023-04-07T14:57:33;5.00;;;1.30;;
38479;SDS011;62333;51.980;5.934;2023-04-07T14:59:58;2.80;;;1.60;;
38479;SDS011;62333;51.980;5.934;2023-04-07T15:02:24;5.47;;;1.77;;
38479;SDS011;62333;51.980;5.934;2023-04-07T15:04:52;6.50;;;1.83;;
38479;SDS011;62333;51.980;5.934;2023-04-07T15:07:18;4.60;;;2.05;;
38479;SDS011;62333;51.980;5.934;2023-04-07T15:09:43;3.85;;;1.50;;
38479;SDS011;62333;51.980;5.934;2023-04-07T15:12:11;4.22;;;1.25;;